sensor_id;sensor_type;location;lat;lon;timestamp;temperature;humidity
13898;DHT22;7019;50.766;4.474;2023-09-12T00:01:08;18.80;99.90
13898;DHT22;7019;50.766;4.474;2023-09-12T00:03:35;18.80;99.90
13898;DHT22;7019;50.766;4.474;2023-09-12T00:06:03;18.80;99.90
13898;DHT22;7019;50.766;4.474;2023-09-12T00:08:30;18.70;99.90
13898;DHT22;7019;50.766;4.474;2023-09-12T00:11:02;18.70;99.90
13898;DHT22;7019;50.766;4.474;2023-09-12T00:13:29;18.70;99.90
13898;DHT22;7019;50.766;4.474;2023-09-12T00:15:57;18.60;99.90
13898;DHT22;7019;50.766;4.474;2023-09-12T00:18:26;18.60;99.90
13898;DHT22;7019;50.766;4.474;2023-09-12T00:20:53;18.60;99.90
13898;DHT22;7019;50.766;4.474;2023-09-12T00:23:21;18.60;99.90
13898;DHT22;7019;50.766;4.474;2023-09-12T00:25:49;18.70;99.90
13898;DHT22;7019;50.766;4.474;2023-09-12T00:28:19;18.60;99.90
13898;DHT22;7019;50.766;4.474;2023-09-12T00:30:46;18.60;99.90
13898;DHT22;7019;50.766;4.474;2023-09-12T00:33:14;18.60;99.90
13898;DHT22;7019;50.766;4.474;2023-09-12T00:35:43;18.60;99.90
13898;DHT22;7019;50.766;4.474;2023-09-12T00:38:10;18.60;99.90
13898;DHT22;7019;50.766;4.474;2023-09-12T00:40:38;18.60;99.90
13898;DHT22;7019;50.766;4.474;2023-09-12T00:43:05;18.60;99.90
13898;DHT22;7019;50.766;4.474;2023-09-12T00:45:32;18.50;99.90
13898;DHT22;7019;50.766;4.474;2023-09-12T00:48:00;18.50;99.90
13898;DHT22;7019;50.766;4.474;2023-09-12T00:50:28;18.50;99.90
13898;DHT22;7019;50.766;4.474;2023-09-12T00:52:57;18.50;99.90
13898;DHT22;7019;50.766;4.474;2023-09-12T00:55:26;18.40;99.90
13898;DHT22;7019;50.766;4.474;2023-09-12T00:57:53;18.30;99.90
13898;DHT22;7019;50.766;4.474;2023-09-12T01:00:21;18.20;99.90
13898;DHT22;7019;50.766;4.474;2023-09-12T01:02:48;18.10;99.90
13898;DHT22;7019;50.766;4.474;2023-09-12T01:05:17;18.10;99.90
13898;DHT22;7019;50.766;4.474;2023-09-12T01:07:44;18.10;99.90
13898;DHT22;7019;50.766;4.474;2023-09-12T01:10:12;18.00;99.90
13898;DHT22;7019;50.766;4.474;2023-09-12T01:12:39;18.00;99.90
13898;DHT22;7019;50.766;4.474;2023-09-12T01:15:07;18.00;99.90
13898;DHT22;7019;50.766;4.474;2023-09-12T01:17:40;17.90;99.90
13898;DHT22;7019;50.766;4.474;2023-09-12T01:20:11;17.90;99.90
13898;DHT22;7019;50.766;4.474;2023-09-12T01:22:55;17.90;99.90
13898;DHT22;7019;50.766;4.474;2023-09-12T01:25:40;17.90;99.90
13898;DHT22;7019;50.766;4.474;2023-09-12T01:28:12;18.00;99.90
13898;DHT22;7019;50.766;4.474;2023-09-12T01:30:42;18.00;99.90
13898;DHT22;7019;50.766;4.474;2023-09-12T01:33:10;17.90;99.90
13898;DHT22;7019;50.766;4.474;2023-09-12T01:35:37;17.90;99.90
13898;DHT22;7019;50.766;4.474;2023-09-12T01:38:04;17.90;99.90
13898;DHT22;7019;50.766;4.474;2023-09-12T01:40:35;17.80;99.90
13898;DHT22;7019;50.766;4.474;2023-09-12T01:43:04;17.80;99.90
13898;DHT22;7019;50.766;4.474;2023-09-12T01:45:35;17.80;99.90
13898;DHT22;7019;50.766;4.474;2023-09-12T01:48:04;17.70;99.90
13898;DHT22;7019;50.766;4.474;2023-09-12T01:50:33;17.70;99.90
13898;DHT22;7019;50.766;4.474;2023-09-12T01:53:00;17.70;99.90
13898;DHT22;7019;50.766;4.474;2023-09-12T01:55:29;17.70;99.90
13898;DHT22;7019;50.766;4.474;2023-09-12T01:57:57;17.70;99.90
13898;DHT22;7019;50.766;4.474;2023-09-12T02:00:24;17.60;99.90
13898;DHT22;7019;50.766;4.474;2023-09-12T02:02:53;17.60;99.90
13898;DHT22;7019;50.766;4.474;2023-09-12T02:05:21;17.70;99.90
13898;DHT22;7019;50.766;4.474;2023-09-12T02:07:49;17.70;99.90
13898;DHT22;7019;50.766;4.474;2023-09-12T02:10:21;17.60;99.90
13898;DHT22;7019;50.766;4.474;2023-09-12T02:12:50;17.60;99.90
13898;DHT22;7019;50.766;4.474;2023-09-12T02:15:17;17.50;99.90
13898;DHT22;7019;50.766;4.474;2023-09-12T02:17:44;17.50;99.90
13898;DHT22;7019;50.766;4.474;2023-09-12T02:20:12;17.50;99.90
13898;DHT22;7019;50.766;4.474;2023-09-12T02:22:39;17.60;99.90
13898;DHT22;7019;50.766;4.474;2023-09-12T02:25:07;17.60;99.90
13898;DHT22;7019;50.766;4.474;2023-09-12T02:27:35;17.60;99.90
13898;DHT22;7019;50.766;4.474;2023-09-12T02:30:02;17.60;99.90
13898;DHT22;7019;50.766;4.474;2023-09-12T02:32:29;17.70;99.90
13898;DHT22;7019;50.766;4.474;2023-09-12T02:34:56;17.70;99.90
13898;DHT22;7019;50.766;4.474;2023-09-12T02:37:25;17.70;99.90
13898;DHT22;7019;50.766;4.474;2023-09-12T02:39:52;17.80;99.90
13898;DHT22;7019;50.766;4.474;2023-09-12T02:42:20;17.80;99.90
13898;DHT22;7019;50.766;4.474;2023-09-12T02:44:47;17.90;99.90
13898;DHT22;7019;50.766;4.474;2023-09-12T02:47:14;17.90;99.90
13898;DHT22;7019;50.766;4.474;2023-09-12T02:49:41;17.90;99.90
13898;DHT22;7019;50.766;4.474;2023-09-12T02:52:08;17.90;99.90
13898;DHT22;7019;50.766;4.474;2023-09-12T02:54:36;18.00;99.90
13898;DHT22;7019;50.766;4.474;2023-09-12T02:57:04;18.00;99.90
13898;DHT22;7019;50.766;4.474;2023-09-12T02:59:31;17.90;99.90
13898;DHT22;7019;50.766;4.474;2023-09-12T03:01:58;18.00;99.90
13898;DHT22;7019;50.766;4.474;2023-09-12T03:04:25;18.00;99.90
13898;DHT22;7019;50.766;4.474;2023-09-12T03:06:53;18.00;99.90
13898;DHT22;7019;50.766;4.474;2023-09-12T03:09:20;18.00;99.90
13898;DHT22;7019;50.766;4.474;2023-09-12T03:11:49;18.10;99.90
13898;DHT22;7019;50.766;4.474;2023-09-12T03:14:16;18.10;99.90
13898;DHT22;7019;50.766;4.474;2023-09-12T03:16:43;18.10;99.90
13898;DHT22;7019;50.766;4.474;2023-09-12T03:19:10;18.20;99.90
13898;DHT22;7019;50.766;4.474;2023-09-12T03:21:37;18.20;99.90
13898;DHT22;7019;50.766;4.474;2023-09-12T03:24:05;18.20;99.90
13898;DHT22;7019;50.766;4.474;2023-09-12T03:26:34;18.20;99.90
13898;DHT22;7019;50.766;4.474;2023-09-12T03:29:03;18.20;99.90
13898;DHT22;7019;50.766;4.474;2023-09-12T03:31:30;18.20;99.90
13898;DHT22;7019;50.766;4.474;2023-09-12T03:33:58;18.20;99.90
13898;DHT22;7019;50.766;4.474;2023-09-12T03:36:24;18.20;99.90
13898;DHT22;7019;50.766;4.474;2023-09-12T03:38:51;18.30;99.90
13898;DHT22;7019;50.766;4.474;2023-09-12T03:41:19;18.30;99.90
13898;DHT22;7019;50.766;4.474;2023-09-12T03:43:47;18.30;99.90
13898;DHT22;7019;50.766;4.474;2023-09-12T03:46:16;18.30;99.90
13898;DHT22;7019;50.766;4.474;2023-09-12T03:48:43;18.30;99.90
13898;DHT22;7019;50.766;4.474;2023-09-12T03:51:12;18.30;99.90
13898;DHT22;7019;50.766;4.474;2023-09-12T03:53:39;18.30;99.90
13898;DHT22;7019;50.766;4.474;2023-09-12T03:56:06;18.30;99.90
13898;DHT22;7019;50.766;4.474;2023-09-12T03:58:34;18.30;99.90
13898;DHT22;7019;50.766;4.474;2023-09-12T04:01:01;18.30;99.90
13898;DHT22;7019;50.766;4.474;2023-09-12T04:03:29;18.20;99.90
13898;DHT22;7019;50.766;4.474;2023-09-12T04:05:56;18.30;99.90
13898;DHT22;7019;50.766;4.474;2023-09-12T04:08:23;18.20;99.90
13898;DHT22;7019;50.766;4.474;2023-09-12T04:10:50;18.20;99.90
13898;DHT22;7019;50.766;4.474;2023-09-12T04:13:17;18.20;99.90
13898;DHT22;7019;50.766;4.474;2023-09-12T04:15:44;18.20;99.90
13898;DHT22;7019;50.766;4.474;2023-09-12T04:18:11;18.20;99.90
13898;DHT22;7019;50.766;4.474;2023-09-12T04:20:40;18.20;99.90
13898;DHT22;7019;50.766;4.474;2023-09-12T04:23:07;18.20;99.90
13898;DHT22;7019;50.766;4.474;2023-09-12T04:25:34;18.30;99.90
13898;DHT22;7019;50.766;4.474;2023-09-12T04:28:01;18.30;99.90
13898;DHT22;7019;50.766;4.474;2023-09-12T04:30:28;18.30;99.90
13898;DHT22;7019;50.766;4.474;2023-09-12T04:32:55;18.30;99.90
13898;DHT22;7019;50.766;4.474;2023-09-12T04:35:22;18.30;99.90
13898;DHT22;7019;50.766;4.474;2023-09-12T04:37:52;18.30;99.90
13898;DHT22;7019;50.766;4.474;2023-09-12T04:40:19;18.30;99.90
13898;DHT22;7019;50.766;4.474;2023-09-12T04:42:46;18.30;99.90
13898;DHT22;7019;50.766;4.474;2023-09-12T04:45:13;18.20;99.90
13898;DHT22;7019;50.766;4.474;2023-09-12T04:47:40;18.30;99.90
13898;DHT22;7019;50.766;4.474;2023-09-12T04:50:08;18.20;99.90
13898;DHT22;7019;50.766;4.474;2023-09-12T04:52:37;18.20;99.90
13898;DHT22;7019;50.766;4.474;2023-09-12T04:55:06;18.10;99.90
13898;DHT22;7019;50.766;4.474;2023-09-12T04:57:33;18.10;99.90
13898;DHT22;7019;50.766;4.474;2023-09-12T05:00:00;18.10;99.90
13898;DHT22;7019;50.766;4.474;2023-09-12T05:02:28;18.10;99.90
13898;DHT22;7019;50.766;4.474;2023-09-12T05:04:55;18.10;99.90
13898;DHT22;7019;50.766;4.474;2023-09-12T05:07:22;18.10;99.90
13898;DHT22;7019;50.766;4.474;2023-09-12T05:09:49;18.00;99.90
13898;DHT22;7019;50.766;4.474;2023-09-12T05:12:17;17.90;99.90
13898;DHT22;7019;50.766;4.474;2023-09-12T05:14:44;17.90;99.90
13898;DHT22;7019;50.766;4.474;2023-09-12T05:17:11;18.00;99.90
13898;DHT22;7019;50.766;4.474;2023-09-12T05:19:38;18.00;99.90
13898;DHT22;7019;50.766;4.474;2023-09-12T05:22:07;17.90;99.90
13898;DHT22;7019;50.766;4.474;2023-09-12T05:24:34;17.90;99.90
13898;DHT22;7019;50.766;4.474;2023-09-12T05:27:01;17.80;99.90
13898;DHT22;7019;50.766;4.474;2023-09-12T05:29:30;17.70;99.90
13898;DHT22;7019;50.766;4.474;2023-09-12T05:31:57;17.60;99.90
13898;DHT22;7019;50.766;4.474;2023-09-12T05:34:24;17.60;99.90
13898;DHT22;7019;50.766;4.474;2023-09-12T05:36:51;17.60;99.90
13898;DHT22;7019;50.766;4.474;2023-09-12T05:39:19;17.60;99.90
13898;DHT22;7019;50.766;4.474;2023-09-12T05:41:46;17.60;99.90
13898;DHT22;7019;50.766;4.474;2023-09-12T05:44:13;17.60;99.90
13898;DHT22;7019;50.766;4.474;2023-09-12T05:46:45;17.50;99.90
13898;DHT22;7019;50.766;4.474;2023-09-12T05:49:12;17.50;99.90
13898;DHT22;7019;50.766;4.474;2023-09-12T05:51:40;17.60;99.90
13898;DHT22;7019;50.766;4.474;2023-09-12T05:54:10;17.60;99.90
13898;DHT22;7019;50.766;4.474;2023-09-12T05:56:39;17.60;99.90
13898;DHT22;7019;50.766;4.474;2023-09-12T05:59:06;17.70;99.90
13898;DHT22;7019;50.766;4.474;2023-09-12T06:01:33;17.70;99.90
13898;DHT22;7019;50.766;4.474;2023-09-12T06:04:02;17.80;99.90
13898;DHT22;7019;50.766;4.474;2023-09-12T06:06:30;17.80;99.90
13898;DHT22;7019;50.766;4.474;2023-09-12T06:08:57;17.90;99.90
13898;DHT22;7019;50.766;4.474;2023-09-12T06:11:24;17.90;99.90
13898;DHT22;7019;50.766;4.474;2023-09-12T06:13:51;17.90;99.90
13898;DHT22;7019;50.766;4.474;2023-09-12T06:16:18;17.90;99.90
13898;DHT22;7019;50.766;4.474;2023-09-12T06:18:45;17.90;99.90
13898;DHT22;7019;50.766;4.474;2023-09-12T06:21:15;18.00;99.90
13898;DHT22;7019;50.766;4.474;2023-09-12T06:23:42;18.10;99.90
13898;DHT22;7019;50.766;4.474;2023-09-12T06:26:10;18.20;99.90
13898;DHT22;7019;50.766;4.474;2023-09-12T06:28:37;18.30;99.90
13898;DHT22;7019;50.766;4.474;2023-09-12T06:31:07;18.40;99.90
13898;DHT22;7019;50.766;4.474;2023-09-12T06:33:34;18.50;99.90
13898;DHT22;7019;50.766;4.474;2023-09-12T06:36:01;18.60;99.90
13898;DHT22;7019;50.766;4.474;2023-09-12T06:38:31;18.70;99.90
13898;DHT22;7019;50.766;4.474;2023-09-12T06:40:58;18.80;99.90
13898;DHT22;7019;50.766;4.474;2023-09-12T06:43:25;18.90;99.90
13898;DHT22;7019;50.766;4.474;2023-09-12T06:45:52;19.10;99.90
13898;DHT22;7019;50.766;4.474;2023-09-12T06:48:19;19.10;99.90
13898;DHT22;7019;50.766;4.474;2023-09-12T06:50:46;19.20;99.90
13898;DHT22;7019;50.766;4.474;2023-09-12T06:53:14;19.30;99.90
13898;DHT22;7019;50.766;4.474;2023-09-12T06:55:42;19.30;99.90
13898;DHT22;7019;50.766;4.474;2023-09-12T06:58:09;19.50;99.90
13898;DHT22;7019;50.766;4.474;2023-09-12T07:00:37;19.60;99.90
13898;DHT22;7019;50.766;4.474;2023-09-12T07:03:04;19.60;99.90
13898;DHT22;7019;50.766;4.474;2023-09-12T07:05:31;19.70;99.90
13898;DHT22;7019;50.766;4.474;2023-09-12T07:07:58;19.80;99.90
13898;DHT22;7019;50.766;4.474;2023-09-12T07:10:26;19.90;99.90
13898;DHT22;7019;50.766;4.474;2023-09-12T07:12:54;19.90;99.90
13898;DHT22;7019;50.766;4.474;2023-09-12T07:15:22;20.00;99.90
13898;DHT22;7019;50.766;4.474;2023-09-12T07:17:49;20.10;99.90
13898;DHT22;7019;50.766;4.474;2023-09-12T07:20:16;20.40;99.90
13898;DHT22;7019;50.766;4.474;2023-09-12T07:22:43;20.60;99.90
13898;DHT22;7019;50.766;4.474;2023-09-12T07:25:10;20.90;99.90
13898;DHT22;7019;50.766;4.474;2023-09-12T07:27:38;21.00;99.90
13898;DHT22;7019;50.766;4.474;2023-09-12T07:30:07;21.20;99.90
13898;DHT22;7019;50.766;4.474;2023-09-12T07:32:35;21.40;99.90
13898;DHT22;7019;50.766;4.474;2023-09-12T07:35:02;21.80;99.90
13898;DHT22;7019;50.766;4.474;2023-09-12T07:37:29;22.30;99.90
13898;DHT22;7019;50.766;4.474;2023-09-12T07:39:56;22.70;99.90
13898;DHT22;7019;50.766;4.474;2023-09-12T07:42:24;23.30;99.90
13898;DHT22;7019;50.766;4.474;2023-09-12T07:44:54;23.80;99.90
13898;DHT22;7019;50.766;4.474;2023-09-12T07:47:23;24.20;99.90
13898;DHT22;7019;50.766;4.474;2023-09-12T07:49:53;24.40;99.90
13898;DHT22;7019;50.766;4.474;2023-09-12T07:52:20;24.80;99.90
13898;DHT22;7019;50.766;4.474;2023-09-12T07:54:48;24.90;99.90
13898;DHT22;7019;50.766;4.474;2023-09-12T07:57:16;24.90;99.90
13898;DHT22;7019;50.766;4.474;2023-09-12T07:59:43;24.90;99.90
13898;DHT22;7019;50.766;4.474;2023-09-12T08:02:10;24.70;99.90
13898;DHT22;7019;50.766;4.474;2023-09-12T08:04:39;24.20;99.90
13898;DHT22;7019;50.766;4.474;2023-09-12T08:07:07;24.00;99.90
13898;DHT22;7019;50.766;4.474;2023-09-12T08:09:49;23.80;99.90
13898;DHT22;7019;50.766;4.474;2023-09-12T08:12:16;23.60;99.90
13898;DHT22;7019;50.766;4.474;2023-09-12T08:14:43;23.50;99.90
13898;DHT22;7019;50.766;4.474;2023-09-12T08:17:10;23.30;99.90
13898;DHT22;7019;50.766;4.474;2023-09-12T08:19:39;23.30;99.90
13898;DHT22;7019;50.766;4.474;2023-09-12T08:22:07;23.20;99.90
13898;DHT22;7019;50.766;4.474;2023-09-12T08:24:34;23.00;99.90
13898;DHT22;7019;50.766;4.474;2023-09-12T08:27:02;22.80;99.90
13898;DHT22;7019;50.766;4.474;2023-09-12T08:29:29;22.70;99.90
13898;DHT22;7019;50.766;4.474;2023-09-12T08:31:57;22.70;99.90
13898;DHT22;7019;50.766;4.474;2023-09-12T08:34:24;22.80;99.90
13898;DHT22;7019;50.766;4.474;2023-09-12T08:36:53;23.40;99.90
13898;DHT22;7019;50.766;4.474;2023-09-12T08:39:24;24.10;99.90
13898;DHT22;7019;50.766;4.474;2023-09-12T08:41:52;24.60;99.90
13898;DHT22;7019;50.766;4.474;2023-09-12T08:44:20;25.20;99.90
13898;DHT22;7019;50.766;4.474;2023-09-12T08:46:48;25.40;99.90
13898;DHT22;7019;50.766;4.474;2023-09-12T08:49:15;25.40;99.90
13898;DHT22;7019;50.766;4.474;2023-09-12T08:51:43;25.60;99.90
13898;DHT22;7019;50.766;4.474;2023-09-12T08:54:11;25.70;99.90
13898;DHT22;7019;50.766;4.474;2023-09-12T08:56:40;25.80;99.90
13898;DHT22;7019;50.766;4.474;2023-09-12T08:59:09;25.90;99.90
13898;DHT22;7019;50.766;4.474;2023-09-12T09:01:37;25.70;99.90
13898;DHT22;7019;50.766;4.474;2023-09-12T09:04:06;25.60;99.90
13898;DHT22;7019;50.766;4.474;2023-09-12T09:06:34;26.00;99.90
13898;DHT22;7019;50.766;4.474;2023-09-12T09:09:04;26.30;99.90
13898;DHT22;7019;50.766;4.474;2023-09-12T09:11:34;26.60;99.90
13898;DHT22;7019;50.766;4.474;2023-09-12T09:14:02;27.00;99.90
13898;DHT22;7019;50.766;4.474;2023-09-12T09:16:30;26.80;99.90
13898;DHT22;7019;50.766;4.474;2023-09-12T09:18:58;27.20;99.90
13898;DHT22;7019;50.766;4.474;2023-09-12T09:21:27;27.20;99.90
13898;DHT22;7019;50.766;4.474;2023-09-12T09:23:57;27.10;99.90
13898;DHT22;7019;50.766;4.474;2023-09-12T09:26:24;27.10;99.90
13898;DHT22;7019;50.766;4.474;2023-09-12T09:29:05;27.30;99.90
13898;DHT22;7019;50.766;4.474;2023-09-12T09:31:33;27.10;99.90
13898;DHT22;7019;50.766;4.474;2023-09-12T09:34:00;26.90;99.90
13898;DHT22;7019;50.766;4.474;2023-09-12T09:36:28;27.20;99.90
13898;DHT22;7019;50.766;4.474;2023-09-12T09:38:57;27.70;99.90
13898;DHT22;7019;50.766;4.474;2023-09-12T09:41:25;27.80;99.90
13898;DHT22;7019;50.766;4.474;2023-09-12T09:43:53;28.10;99.90
13898;DHT22;7019;50.766;4.474;2023-09-12T09:46:21;27.90;99.90
13898;DHT22;7019;50.766;4.474;2023-09-12T09:48:49;27.90;99.90
13898;DHT22;7019;50.766;4.474;2023-09-12T09:51:17;28.10;99.90
13898;DHT22;7019;50.766;4.474;2023-09-12T09:53:44;28.20;99.90
13898;DHT22;7019;50.766;4.474;2023-09-12T09:56:14;28.10;99.90
13898;DHT22;7019;50.766;4.474;2023-09-12T09:58:47;27.90;99.90
13898;DHT22;7019;50.766;4.474;2023-09-12T10:01:17;27.90;99.90
13898;DHT22;7019;50.766;4.474;2023-09-12T10:03:48;28.10;99.90
13898;DHT22;7019;50.766;4.474;2023-09-12T10:06:15;28.10;99.90
13898;DHT22;7019;50.766;4.474;2023-09-12T10:08:44;27.90;99.90
13898;DHT22;7019;50.766;4.474;2023-09-12T10:11:13;27.50;99.90
13898;DHT22;7019;50.766;4.474;2023-09-12T10:13:43;27.30;99.90
13898;DHT22;7019;50.766;4.474;2023-09-12T10:16:13;27.70;99.90
13898;DHT22;7019;50.766;4.474;2023-09-12T10:18:49;27.60;99.90
13898;DHT22;7019;50.766;4.474;2023-09-12T10:21:27;27.60;99.90
13898;DHT22;7019;50.766;4.474;2023-09-12T10:23:56;27.50;99.90
13898;DHT22;7019;50.766;4.474;2023-09-12T10:26:25;27.40;99.90
13898;DHT22;7019;50.766;4.474;2023-09-12T10:28:52;27.30;99.90
13898;DHT22;7019;50.766;4.474;2023-09-12T10:31:21;27.00;99.90
13898;DHT22;7019;50.766;4.474;2023-09-12T10:33:52;26.70;99.90
13898;DHT22;7019;50.766;4.474;2023-09-12T10:36:20;26.50;99.90
13898;DHT22;7019;50.766;4.474;2023-09-12T10:38:49;26.20;99.90
13898;DHT22;7019;50.766;4.474;2023-09-12T10:41:18;25.80;99.90
13898;DHT22;7019;50.766;4.474;2023-09-12T10:43:48;25.40;99.90
13898;DHT22;7019;50.766;4.474;2023-09-12T10:46:18;25.10;99.90
13898;DHT22;7019;50.766;4.474;2023-09-12T10:48:47;24.80;99.90
13898;DHT22;7019;50.766;4.474;2023-09-12T10:51:16;24.60;99.90
13898;DHT22;7019;50.766;4.474;2023-09-12T10:53:47;24.80;99.90
13898;DHT22;7019;50.766;4.474;2023-09-12T10:56:20;25.30;99.90
13898;DHT22;7019;50.766;4.474;2023-09-12T10:59:09;25.70;99.90
13898;DHT22;7019;50.766;4.474;2023-09-12T11:01:39;26.20;99.90
13898;DHT22;7019;50.766;4.474;2023-09-12T11:04:31;26.40;99.90
13898;DHT22;7019;50.766;4.474;2023-09-12T11:07:01;27.00;99.90
13898;DHT22;7019;50.766;4.474;2023-09-12T11:09:28;27.40;99.90
13898;DHT22;7019;50.766;4.474;2023-09-12T11:11:58;27.50;99.90
13898;DHT22;7019;50.766;4.474;2023-09-12T11:14:25;27.40;99.90
13898;DHT22;7019;50.766;4.474;2023-09-12T11:17:20;27.30;99.90
13898;DHT22;7019;50.766;4.474;2023-09-12T11:19:48;27.00;99.90
13898;DHT22;7019;50.766;4.474;2023-09-12T11:22:24;26.70;99.90
13898;DHT22;7019;50.766;4.474;2023-09-12T11:24:51;26.50;99.90
13898;DHT22;7019;50.766;4.474;2023-09-12T11:27:18;26.50;99.90
13898;DHT22;7019;50.766;4.474;2023-09-12T11:29:46;26.70;99.90
13898;DHT22;7019;50.766;4.474;2023-09-12T11:32:26;26.90;99.90
13898;DHT22;7019;50.766;4.474;2023-09-12T11:34:53;27.00;99.90
13898;DHT22;7019;50.766;4.474;2023-09-12T11:37:26;27.00;99.90
13898;DHT22;7019;50.766;4.474;2023-09-12T11:39:54;27.00;99.90
13898;DHT22;7019;50.766;4.474;2023-09-12T11:42:23;27.00;99.90
13898;DHT22;7019;50.766;4.474;2023-09-12T11:44:51;27.10;99.90
13898;DHT22;7019;50.766;4.474;2023-09-12T11:47:19;27.10;99.90
13898;DHT22;7019;50.766;4.474;2023-09-12T11:49:46;27.40;99.90
13898;DHT22;7019;50.766;4.474;2023-09-12T11:52:14;27.40;99.90
13898;DHT22;7019;50.766;4.474;2023-09-12T11:54:43;27.10;99.90
13898;DHT22;7019;50.766;4.474;2023-09-12T11:57:13;27.20;99.90
13898;DHT22;7019;50.766;4.474;2023-09-12T11:59:41;27.60;99.90
13898;DHT22;7019;50.766;4.474;2023-09-12T12:02:11;27.30;99.90
13898;DHT22;7019;50.766;4.474;2023-09-12T12:04:38;27.30;99.90
13898;DHT22;7019;50.766;4.474;2023-09-12T12:07:06;27.30;99.90
13898;DHT22;7019;50.766;4.474;2023-09-12T12:09:32;27.30;99.90
13898;DHT22;7019;50.766;4.474;2023-09-12T12:12:09;27.20;99.90
13898;DHT22;7019;50.766;4.474;2023-09-12T12:14:36;27.50;99.90
13898;DHT22;7019;50.766;4.474;2023-09-12T12:17:09;27.40;99.90
13898;DHT22;7019;50.766;4.474;2023-09-12T12:19:36;27.60;99.90
13898;DHT22;7019;50.766;4.474;2023-09-12T12:22:04;27.60;99.90
13898;DHT22;7019;50.766;4.474;2023-09-12T12:24:40;27.60;99.90
13898;DHT22;7019;50.766;4.474;2023-09-12T12:27:09;27.60;99.90
13898;DHT22;7019;50.766;4.474;2023-09-12T12:29:37;27.30;99.90
13898;DHT22;7019;50.766;4.474;2023-09-12T12:32:06;27.20;99.90
13898;DHT22;7019;50.766;4.474;2023-09-12T12:34:35;26.70;99.90
13898;DHT22;7019;50.766;4.474;2023-09-12T12:37:03;26.70;99.90
13898;DHT22;7019;50.766;4.474;2023-09-12T12:39:31;26.40;99.90
13898;DHT22;7019;50.766;4.474;2023-09-12T12:41:59;26.30;99.90
13898;DHT22;7019;50.766;4.474;2023-09-12T12:44:34;26.10;99.90
13898;DHT22;7019;50.766;4.474;2023-09-12T12:47:06;26.10;99.90
13898;DHT22;7019;50.766;4.474;2023-09-12T12:49:36;26.10;99.90
13898;DHT22;7019;50.766;4.474;2023-09-12T12:52:05;26.20;99.90
13898;DHT22;7019;50.766;4.474;2023-09-12T12:54:32;26.40;99.90
13898;DHT22;7019;50.766;4.474;2023-09-12T12:57:00;26.70;99.90
13898;DHT22;7019;50.766;4.474;2023-09-12T12:59:28;26.80;99.90
13898;DHT22;7019;50.766;4.474;2023-09-12T13:02:01;26.80;99.90
13898;DHT22;7019;50.766;4.474;2023-09-12T13:04:36;26.80;99.90
13898;DHT22;7019;50.766;4.474;2023-09-12T13:07:04;26.80;99.90
13898;DHT22;7019;50.766;4.474;2023-09-12T13:09:31;26.90;99.90
13898;DHT22;7019;50.766;4.474;2023-09-12T13:11:59;26.80;99.90
13898;DHT22;7019;50.766;4.474;2023-09-12T13:14:26;26.70;99.90
13898;DHT22;7019;50.766;4.474;2023-09-12T13:16:57;26.70;99.90
13898;DHT22;7019;50.766;4.474;2023-09-12T13:19:26;26.50;99.90
13898;DHT22;7019;50.766;4.474;2023-09-12T13:21:53;26.40;99.90
13898;DHT22;7019;50.766;4.474;2023-09-12T13:24:20;26.20;99.90
13898;DHT22;7019;50.766;4.474;2023-09-12T13:26:48;26.10;99.90
13898;DHT22;7019;50.766;4.474;2023-09-12T13:29:15;26.00;99.90
13898;DHT22;7019;50.766;4.474;2023-09-12T13:31:43;25.90;99.90
13898;DHT22;7019;50.766;4.474;2023-09-12T13:34:10;25.80;99.90
13898;DHT22;7019;50.766;4.474;2023-09-12T13:36:39;25.80;99.90
13898;DHT22;7019;50.766;4.474;2023-09-12T13:39:07;25.80;99.90
13898;DHT22;7019;50.766;4.474;2023-09-12T13:41:34;25.90;99.90
13898;DHT22;7019;50.766;4.474;2023-09-12T13:44:01;25.90;99.90
13898;DHT22;7019;50.766;4.474;2023-09-12T13:46:29;25.80;99.90
13898;DHT22;7019;50.766;4.474;2023-09-12T13:48:56;25.80;99.90
13898;DHT22;7019;50.766;4.474;2023-09-12T13:51:26;25.70;99.90
13898;DHT22;7019;50.766;4.474;2023-09-12T13:53:54;25.80;99.90
13898;DHT22;7019;50.766;4.474;2023-09-12T13:56:21;25.70;99.90
13898;DHT22;7019;50.766;4.474;2023-09-12T13:58:49;25.70;99.90
13898;DHT22;7019;50.766;4.474;2023-09-12T14:01:18;25.70;99.90
13898;DHT22;7019;50.766;4.474;2023-09-12T14:03:46;25.60;99.90
13898;DHT22;7019;50.766;4.474;2023-09-12T14:06:13;25.60;99.90
13898;DHT22;7019;50.766;4.474;2023-09-12T14:08:48;25.60;99.90
13898;DHT22;7019;50.766;4.474;2023-09-12T14:11:16;25.40;99.90
13898;DHT22;7019;50.766;4.474;2023-09-12T14:13:44;25.30;99.90
13898;DHT22;7019;50.766;4.474;2023-09-12T14:16:11;25.30;99.90
13898;DHT22;7019;50.766;4.474;2023-09-12T14:18:38;25.20;99.90
13898;DHT22;7019;50.766;4.474;2023-09-12T14:21:05;25.10;99.90
13898;DHT22;7019;50.766;4.474;2023-09-12T14:23:32;25.00;99.90
13898;DHT22;7019;50.766;4.474;2023-09-12T14:25:59;24.90;99.90
13898;DHT22;7019;50.766;4.474;2023-09-12T14:28:28;24.70;99.90
13898;DHT22;7019;50.766;4.474;2023-09-12T14:30:57;24.60;99.90
13898;DHT22;7019;50.766;4.474;2023-09-12T14:33:25;24.50;99.90
13898;DHT22;7019;50.766;4.474;2023-09-12T14:35:52;24.40;99.90
13898;DHT22;7019;50.766;4.474;2023-09-12T14:38:19;24.50;99.90
13898;DHT22;7019;50.766;4.474;2023-09-12T14:40:46;24.40;99.90
13898;DHT22;7019;50.766;4.474;2023-09-12T14:43:13;24.50;99.90
13898;DHT22;7019;50.766;4.474;2023-09-12T14:45:42;24.50;99.90
13898;DHT22;7019;50.766;4.474;2023-09-12T14:48:09;24.50;99.90
13898;DHT22;7019;50.766;4.474;2023-09-12T14:50:36;24.50;99.90
13898;DHT22;7019;50.766;4.474;2023-09-12T14:53:03;24.50;99.90
13898;DHT22;7019;50.766;4.474;2023-09-12T14:55:31;24.40;99.90
13898;DHT22;7019;50.766;4.474;2023-09-12T14:57:58;24.20;99.90
13898;DHT22;7019;50.766;4.474;2023-09-12T15:00:26;24.20;99.90
13898;DHT22;7019;50.766;4.474;2023-09-12T15:02:55;24.10;99.90
13898;DHT22;7019;50.766;4.474;2023-09-12T15:05:22;24.00;99.90
13898;DHT22;7019;50.766;4.474;2023-09-12T15:07:49;24.00;99.90
13898;DHT22;7019;50.766;4.474;2023-09-12T15:10:17;23.90;99.90
13898;DHT22;7019;50.766;4.474;2023-09-12T15:12:44;23.80;99.90
13898;DHT22;7019;50.766;4.474;2023-09-12T15:15:11;23.80;99.90
13898;DHT22;7019;50.766;4.474;2023-09-12T15:17:38;23.80;99.90
13898;DHT22;7019;50.766;4.474;2023-09-12T15:20:09;23.80;99.90
13898;DHT22;7019;50.766;4.474;2023-09-12T15:22:36;23.70;99.90
13898;DHT22;7019;50.766;4.474;2023-09-12T15:25:04;23.60;99.90
13898;DHT22;7019;50.766;4.474;2023-09-12T15:27:31;23.40;99.90
13898;DHT22;7019;50.766;4.474;2023-09-12T15:30:00;23.40;99.90
13898;DHT22;7019;50.766;4.474;2023-09-12T15:32:27;23.30;99.90
13898;DHT22;7019;50.766;4.474;2023-09-12T15:34:54;23.10;99.90
13898;DHT22;7019;50.766;4.474;2023-09-12T15:37:23;23.00;99.90
13898;DHT22;7019;50.766;4.474;2023-09-12T15:39:50;23.00;99.90
13898;DHT22;7019;50.766;4.474;2023-09-12T15:42:17;22.90;99.90
13898;DHT22;7019;50.766;4.474;2023-09-12T15:44:44;22.80;99.90
13898;DHT22;7019;50.766;4.474;2023-09-12T15:47:11;22.70;99.90
13898;DHT22;7019;50.766;4.474;2023-09-12T15:49:38;22.60;99.90
13898;DHT22;7019;50.766;4.474;2023-09-12T15:52:05;22.60;99.90